Time;durP1;ratioP1;P1;durP2;ratioP2;P2;SDS_P1;SDS_P2;PMS_P1;PMS_P2;Temp;Humidity;BMP_temperature;BMP_pressure;BME280_temperature;BME280_humidity;BME280_pressure;Samples;Min_cycle;Max_cycle;Signal;HPM_P1;HPM_P2
2023/06/06 00:02:07;;;;;;;9.95;3.03;;;11.80;99.90;;;;;;4971956;28;20532;-80
2023/06/06 00:04:53;;;;;;;8.23;3.00;;;11.80;99.90;;;;;;4954817;28;20051;-78
2023/06/06 00:07:42;;;;;;;7.65;2.90;;;11.80;99.90;;;;;;4955884;28;20055;-77
2023/06/06 00:10:31;;;;;;;6.20;2.40;;;11.90;99.90;;;;;;4972165;28;20055;-80
2023/06/06 00:13:18;;;;;;;9.93;3.25;;;11.80;99.90;;;;;;4971586;28;20054;-79
2023/06/06 00:16:04;;;;;;;10.15;3.17;;;11.80;99.90;;;;;;4971843;28;20065;-79
2023/06/06 00:18:52;;;;;;;7.10;3.40;;;11.80;99.90;;;;;;4953913;28;20796;-77
2023/06/06 00:21:39;;;;;;;8.27;3.33;;;11.90;99.90;;;;;;4972360;28;20058;-78
2023/06/06 00:24:25;;;;;;;9.77;2.85;;;11.90;99.90;;;;;;4971612;28;20876;-78
2023/06/06 00:27:11;;;;;;;10.43;3.13;;;12.00;99.90;;;;;;4941550;28;20520;-76
2023/06/06 00:29:58;;;;;;;9.90;3.50;;;12.00;99.90;;;;;;4971000;28;20407;-77
2023/06/06 00:32:44;;;;;;;9.45;2.97;;;12.00;99.90;;;;;;4972155;28;20061;-78
2023/06/06 00:35:30;;;;;;;12.65;3.78;;;12.00;99.90;;;;;;4954690;28;20480;-77
2023/06/06 00:38:16;;;;;;;6.22;2.20;;;11.90;99.90;;;;;;4971099;28;20133;-77
2023/06/06 00:41:02;;;;;;;7.53;3.10;;;11.90;99.90;;;;;;4971254;28;20120;-77
2023/06/06 00:43:48;;;;;;;10.18;2.70;;;11.90;99.90;;;;;;4971083;28;20058;-78
2023/06/06 00:46:34;;;;;;;11.30;3.28;;;11.90;99.90;;;;;;4954112;28;20137;-77
2023/06/06 00:49:21;;;;;;;12.13;3.97;;;11.90;99.90;;;;;;4971741;28;20503;-78
2023/06/06 00:52:08;;;;;;;9.23;3.65;;;11.90;99.90;;;;;;4954727;28;20455;-79
2023/06/06 00:54:55;;;;;;;10.25;3.15;;;11.90;99.90;;;;;;4971129;28;20050;-77
2023/06/06 00:57:43;;;;;;;8.77;3.35;;;11.90;99.90;;;;;;4970565;28;20569;-78
2023/06/06 01:00:32;;;;;;;9.73;3.50;;;11.90;99.90;;;;;;4971526;28;20239;-78
2023/06/06 01:03:19;;;;;;;11.00;2.72;;;12.00;99.90;;;;;;4970781;28;20147;-77
2023/06/06 01:06:06;;;;;;;13.38;3.33;;;12.00;99.90;;;;;;4970419;28;20135;-77
2023/06/06 01:08:52;;;;;;;10.32;3.63;;;12.00;99.90;;;;;;4971330;28;20156;-78
2023/06/06 01:11:50;;;;;;;9.35;3.33;;;12.00;99.90;;;;;;4954052;28;20051;-78
2023/06/06 01:15:06;;;;;;;7.82;2.67;;;12.00;99.90;;;;;;4954350;28;20051;-79
2023/06/06 01:17:52;;;;;;;;;;;12.00;99.90;;;;;;4971812;28;20422;-77
2023/06/06 01:20:42;;;;;;;8.38;3.17;;;12.00;99.90;;;;;;4957563;28;19926;-77
2023/06/06 01:23:30;;;;;;;10.68;2.75;;;12.10;99.90;;;;;;4975652;28;20137;-79
2023/06/06 01:26:17;;;;;;;7.95;2.80;;;12.10;99.90;;;;;;4975287;28;20522;-77
2023/06/06 01:29:03;;;;;;;7.95;2.70;;;12.10;99.90;;;;;;4945035;28;20055;-77
2023/06/06 01:32:08;;;;;;;6.95;3.05;;;12.10;99.90;;;;;;4974609;28;20141;-78
2023/06/06 01:35:13;;;;;;;7.07;2.30;;;12.10;99.90;;;;;;4958378;28;20059;-77
2023/06/06 01:38:21;;;;;;;10.03;2.90;;;12.10;99.90;;;;;;4974449;28;20051;-77
2023/06/06 01:41:10;;;;;;;9.82;3.03;;;12.10;99.90;;;;;;4957011;28;20059;-77
2023/06/06 01:43:58;;;;;;;9.15;2.63;;;12.20;99.90;;;;;;4974028;28;20130;-77
2023/06/06 01:46:44;;;;;;;7.85;2.50;;;12.10;99.90;;;;;;4957754;28;20042;-78
2023/06/06 01:49:31;;;;;;;7.57;2.42;;;12.10;99.90;;;;;;4975026;28;20054;-76
2023/06/06 01:52:17;;;;;;;6.53;2.80;;;12.10;99.90;;;;;;4974596;28;20053;-77
2023/06/06 01:55:05;;;;;;;8.85;2.80;;;12.10;99.90;;;;;;4973886;28;20050;-78
2023/06/06 01:57:51;;;;;;;8.32;3.13;;;12.20;99.90;;;;;;4973749;28;20053;-77
2023/06/06 02:00:37;;;;;;;6.80;2.83;;;12.20;99.90;;;;;;4973716;28;20051;-78
2023/06/06 02:03:23;;;;;;;10.65;2.60;;;12.20;99.90;;;;;;4973614;28;20062;-78
2023/06/06 02:06:09;;;;;;;8.60;3.13;;;12.30;99.90;;;;;;4973440;28;20779;-77
2023/06/06 02:08:56;;;;;;;8.52;2.90;;;12.30;99.90;;;;;;4973465;28;20051;-79
2023/06/06 02:11:42;;;;;;;7.50;2.72;;;12.30;99.90;;;;;;4974179;28;20495;-78
2023/06/06 02:14:28;;;;;;;8.27;3.00;;;12.30;99.90;;;;;;4954936;28;20055;-78
2023/06/06 02:17:15;;;;;;;7.00;2.55;;;12.30;99.90;;;;;;4972775;28;20054;-77
2023/06/06 02:20:04;;;;;;;8.77;3.15;;;12.20;99.90;;;;;;4974506;28;20086;-78
2023/06/06 02:22:50;;;;;;;5.95;2.85;;;12.30;99.90;;;;;;4973651;28;20167;-77
2023/06/06 02:25:37;;;;;;;8.35;3.05;;;12.30;99.90;;;;;;4956442;28;20054;-78
2023/06/06 02:28:23;;;;;;;10.10;3.13;;;12.40;99.90;;;;;;4973765;28;20058;-78
2023/06/06 02:31:11;;;;;;;12.50;2.72;;;12.30;99.90;;;;;;4972761;28;20089;-78
2023/06/06 02:33:57;;;;;;;13.10;3.58;;;12.30;99.90;;;;;;4959148;28;20047;-80
2023/06/06 02:36:43;;;;;;;12.82;4.28;;;12.30;99.90;;;;;;4973719;28;20520;-78
2023/06/06 02:39:30;;;;;;;9.40;3.38;;;12.30;99.90;;;;;;4974714;28;20062;-78
2023/06/06 02:42:16;;;;;;;13.32;4.30;;;12.30;99.90;;;;;;4974482;28;20058;-77
2023/06/06 02:45:02;;;;;;;11.90;4.13;;;12.20;99.90;;;;;;4974322;28;20046;-77
2023/06/06 02:47:48;;;;;;;16.63;5.05;;;12.20;99.90;;;;;;4973653;28;20094;-80
2023/06/06 02:50:35;;;;;;;11.15;3.75;;;12.20;99.90;;;;;;4957639;28;20619;-79
2023/06/06 02:53:21;;;;;;;9.88;3.95;;;12.30;99.90;;;;;;4973495;28;20105;-78
2023/06/06 02:56:07;;;;;;;8.48;4.07;;;12.30;99.90;;;;;;4973850;28;20053;-80
2023/06/06 02:58:53;;;;;;;13.95;3.63;;;12.20;99.90;;;;;;4973876;28;20384;-80
2023/06/06 03:01:44;;;;;;;15.77;4.95;;;12.10;99.90;;;;;;4974945;28;20047;-78
2023/06/06 03:04:30;;;;;;;13.30;4.07;;;12.20;99.90;;;;;;4974707;28;20109;-77
2023/06/06 03:07:20;;;;;;;13.60;3.65;;;12.10;99.90;;;;;;4959376;28;20125;-79
2023/06/06 03:10:06;;;;;;;14.48;3.83;;;12.10;99.90;;;;;;4973499;28;20117;-78
2023/06/06 03:12:52;;;;;;;15.57;4.03;;;12.10;99.90;;;;;;4974196;28;20054;-80
2023/06/06 03:15:44;;;;;;;15.25;5.43;;;12.20;99.90;;;;;;4974229;28;20519;-81
2023/06/06 03:18:31;;;;;;;10.27;3.70;;;12.20;99.90;;;;;;4956166;28;20054;-79
2023/06/06 03:21:17;;;;;;;14.55;4.55;;;12.30;99.90;;;;;;4958547;28;20105;-80
2023/06/06 03:24:04;;;;;;;17.05;4.40;;;12.30;99.90;;;;;;4972833;28;20051;-80
2023/06/06 03:26:50;;;;;;;10.73;3.55;;;12.30;99.90;;;;;;4973811;28;20050;-79
2023/06/06 03:29:37;;;;;;;10.73;3.67;;;12.40;99.90;;;;;;4973750;28;20442;-79
2023/06/06 03:32:23;;;;;;;15.88;3.90;;;12.30;99.90;;;;;;4973370;28;20047;-79
2023/06/06 03:35:09;;;;;;;10.60;3.33;;;12.30;99.90;;;;;;4972881;28;20055;-80
2023/06/06 03:37:57;;;;;;;9.95;3.85;;;12.20;99.90;;;;;;4973167;28;20196;-78
2023/06/06 03:40:43;;;;;;;11.63;3.38;;;12.20;99.90;;;;;;4955288;28;20105;-79
2023/06/06 03:43:30;;;;;;;15.18;4.18;;;12.20;99.90;;;;;;4971992;28;20410;-78
2023/06/06 03:46:16;;;;;;;14.52;3.53;;;12.20;99.90;;;;;;4972390;28;20050;-77
2023/06/06 03:49:02;;;;;;;12.68;3.78;;;12.20;99.90;;;;;;4954707;28;20145;-79
2023/06/06 03:51:48;;;;;;;5.95;2.92;;;12.20;99.90;;;;;;4955927;28;20054;-80
2023/06/06 03:54:37;;;;;;;11.98;3.75;;;12.20;99.90;;;;;;4973644;28;20047;-78
2023/06/06 03:57:23;;;;;;;9.15;3.55;;;12.30;99.90;;;;;;4973150;28;20054;-78
2023/06/06 04:00:10;;;;;;;11.90;3.30;;;12.30;99.90;;;;;;4972867;28;20061;-79
2023/06/06 04:02:57;;;;;;;9.68;3.38;;;12.30;99.90;;;;;;4971747;28;20515;-79
2023/06/06 04:05:44;;;;;;;11.93;3.63;;;12.30;99.90;;;;;;4958084;28;20425;-79
2023/06/06 04:08:35;;;;;;;9.55;3.58;;;12.20;99.90;;;;;;4974054;28;20066;-78
2023/06/06 04:11:21;;;;;;;11.35;3.40;;;12.20;99.90;;;;;;4956329;28;20047;-77
2023/06/06 04:14:07;;;;;;;11.00;3.28;;;12.20;99.90;;;;;;4970616;28;20059;-79
2023/06/06 04:16:53;;;;;;;13.65;3.80;;;12.20;99.90;;;;;;4971847;28;20430;-79
2023/06/06 04:19:39;;;;;;;10.77;3.38;;;12.20;99.90;;;;;;4955553;28;20060;-78
2023/06/06 04:22:27;;;;;;;8.95;3.28;;;12.20;99.90;;;;;;4971674;28;20097;-79
2023/06/06 04:25:15;;;;;;;10.38;3.00;;;12.20;99.90;;;;;;4955000;28;20153;-78
2023/06/06 04:28:02;;;;;;;9.55;3.45;;;12.30;99.90;;;;;;4970341;28;20137;-79
2023/06/06 04:30:52;;;;;;;11.75;3.17;;;12.40;99.90;;;;;;4971965;28;20055;-79
2023/06/06 04:33:38;;;;;;;12.50;3.15;;;12.50;99.90;;;;;;4971936;28;20288;-78
2023/06/06 04:36:25;;;;;;;13.57;4.00;;;12.50;99.90;;;;;;4955192;28;20110;-77
2023/06/06 04:39:12;;;;;;;15.05;4.28;;;12.60;99.90;;;;;;4955314;28;20109;-78
2023/06/06 04:41:59;;;;;;;9.43;3.72;;;12.60;99.90;;;;;;4972727;28;20153;-78
2023/06/06 04:44:46;;;;;;;8.38;3.03;;;12.70;99.90;;;;;;4971346;28;20659;-78
2023/06/06 04:47:32;;;;;;;12.20;5.00;;;12.70;99.90;;;;;;4972169;28;20058;-80
2023/06/06 04:50:19;;;;;;;12.70;3.65;;;12.70;99.90;;;;;;4971893;28;20141;-79
2023/06/06 04:53:05;;;;;;;7.97;3.47;;;12.70;99.90;;;;;;4969833;28;20517;-78
2023/06/06 04:55:56;;;;;;;14.52;3.80;;;12.80;99.90;;;;;;4975730;28;20406;-79
2023/06/06 04:58:42;;;;;;;7.78;2.72;;;12.80;99.90;;;;;;4975397;28;20051;-77
2023/06/06 05:01:30;;;;;;;10.45;3.28;;;12.80;99.90;;;;;;4976406;28;20047;-77
2023/06/06 05:04:17;;;;;;;9.18;3.03;;;12.80;99.90;;;;;;4976470;28;20083;-78
2023/06/06 05:07:04;;;;;;;10.35;3.42;;;12.90;99.90;;;;;;4957768;28;20055;-78
2023/06/06 05:09:51;;;;;;;11.23;2.80;;;13.00;99.90;;;;;;4974191;28;20051;-78
2023/06/06 05:12:37;;;;;;;10.25;2.85;;;13.10;99.90;;;;;;4975464;28;20129;-78
2023/06/06 05:15:23;;;;;;;8.55;2.58;;;13.20;99.90;;;;;;4958123;28;20054;-79
2023/06/06 05:18:09;;;;;;;8.77;2.40;;;13.20;99.90;;;;;;4944498;28;20113;-78
2023/06/06 05:20:57;;;;;;;7.07;2.90;;;13.20;99.90;;;;;;4957188;28;20499;-77
2023/06/06 05:23:43;;;;;;;9.85;3.05;;;13.20;99.90;;;;;;4975219;28;20055;-78
2023/06/06 05:26:30;;;;;;;17.58;5.55;;;13.20;99.90;;;;;;4960872;28;20054;-78
2023/06/06 05:29:16;;;;;;;7.30;3.00;;;13.30;99.90;;;;;;4975922;28;20089;-79
2023/06/06 05:32:02;;;;;;;12.65;2.75;;;13.40;99.90;;;;;;4976319;28;20090;-80
2023/06/06 05:34:48;;;;;;;8.07;2.70;;;13.40;99.90;;;;;;4975231;28;20085;-80
2023/06/06 05:37:35;;;;;;;9.85;2.85;;;13.50;99.90;;;;;;4957086;28;20125;-80
2023/06/06 05:40:21;;;;;;;15.85;3.42;;;13.70;99.90;;;;;;4974216;28;20158;-78
2023/06/06 05:43:07;;;;;;;10.73;3.03;;;13.70;99.90;;;;;;4974991;28;20163;-78
2023/06/06 05:45:53;;;;;;;12.85;2.90;;;13.80;99.90;;;;;;4975391;28;20059;-79
2023/06/06 05:48:40;;;;;;;14.63;3.78;;;13.80;99.90;;;;;;4957580;28;20102;-79
2023/06/06 05:51:26;;;;;;;9.18;3.22;;;13.90;99.90;;;;;;4975739;28;20055;-79
2023/06/06 05:54:15;;;;;;;11.40;3.00;;;14.10;99.90;;;;;;4976084;28;20182;-80
2023/06/06 05:57:01;;;;;;;12.48;2.80;;;14.20;99.90;;;;;;4974647;28;20120;-79
2023/06/06 05:59:48;;;;;;;23.55;3.97;;;14.30;99.90;;;;;;4957791;28;20447;-79
2023/06/06 06:02:34;;;;;;;7.95;2.38;;;14.30;99.90;;;;;;4973988;28;20142;-80
2023/06/06 06:05:20;;;;;;;8.90;2.58;;;14.30;99.90;;;;;;4956808;28;20051;-78
2023/06/06 06:08:06;;;;;;;7.07;2.67;;;14.40;99.90;;;;;;4975725;28;20129;-78
2023/06/06 06:10:52;;;;;;;12.02;2.80;;;14.40;99.90;;;;;;4974138;28;20082;-78
2023/06/06 06:13:39;;;;;;;9.25;2.78;;;14.40;99.90;;;;;;4974927;28;20173;-79
2023/06/06 06:20:09;;;;;;;9.10;2.50;;;14.40;99.90;;;;;;4960494;28;20055;-77
2023/06/06 06:22:55;;;;;;;9.70;2.75;;;14.40;99.90;;;;;;4963744;28;20054;-77
2023/06/06 06:25:42;;;;;;;8.85;2.53;;;14.60;99.90;;;;;;4981651;28;20073;-78
2023/06/06 06:28:30;;;;;;;6.55;2.28;;;14.70;99.90;;;;;;4977959;28;20086;-78
2023/06/06 06:31:16;;;;;;;7.88;2.08;;;14.70;99.90;;;;;;4959711;28;20055;-78
2023/06/06 06:34:02;;;;;;;7.03;2.33;;;14.90;99.90;;;;;;4980416;28;20137;-78
2023/06/06 06:36:48;;;;;;;8.38;2.65;;;15.00;99.90;;;;;;4981477;28;20141;-80
2023/06/06 06:39:35;;;;;;;9.23;2.22;;;14.90;99.90;;;;;;4962199;28;20133;-78
2023/06/06 06:42:20;;;;;;;12.38;2.97;;;15.00;99.90;;;;;;4980950;28;20082;-77
2023/06/06 06:45:08;;;;;;;10.65;3.05;;;15.00;99.90;;;;;;4964742;28;20094;-78
2023/06/06 06:47:54;;;;;;;10.82;3.13;;;15.20;99.90;;;;;;4983003;28;20051;-78
2023/06/06 06:50:40;;;;;;;18.67;3.92;;;15.20;99.90;;;;;;4982094;28;20053;-77
2023/06/06 06:53:30;;;;;;;8.23;2.60;;;15.30;99.90;;;;;;4982939;28;20428;-77
2023/06/06 06:56:16;;;;;;;11.95;3.53;;;15.40;99.90;;;;;;4981892;28;20058;-76
2023/06/06 06:59:03;;;;;;;13.20;2.67;;;15.30;99.90;;;;;;4965486;28;20127;-77
2023/06/06 07:01:49;;;;;;;6.97;3.55;;;15.30;99.90;;;;;;4977178;28;20782;-77
2023/06/06 07:04:36;;;;;;;9.77;2.60;;;15.20;99.90;;;;;;4961814;28;20047;-77
2023/06/06 07:07:23;;;;;;;12.10;3.50;;;15.40;99.90;;;;;;4981446;28;20090;-79
2023/06/06 07:10:09;;;;;;;12.95;3.50;;;15.50;99.90;;;;;;4978851;28;20550;-80
2023/06/06 07:12:56;;;;;;;8.85;2.92;;;15.80;99.90;;;;;;4972729;28;20061;-78
2023/06/06 07:15:42;;;;;;;13.65;3.40;;;15.90;99.90;;;;;;4972978;28;20482;-79
2023/06/06 07:18:28;;;;;;;11.18;2.72;;;16.20;99.90;;;;;;4957831;28;20054;-78
2023/06/06 07:21:14;;;;;;;8.75;3.22;;;16.20;99.90;;;;;;4972999;28;20064;-80
2023/06/06 07:24:01;;;;;;;7.53;2.80;;;16.30;99.90;;;;;;4973053;28;20050;-79
2023/06/06 07:26:47;;;;;;;7.53;3.15;;;16.30;99.90;;;;;;4973045;28;20506;-78
2023/06/06 07:29:33;;;;;;;10.00;3.00;;;16.40;99.90;;;;;;4973036;28;20057;-79
2023/06/06 07:32:19;;;;;;;14.02;3.10;;;16.60;99.90;;;;;;4973464;28;20415;-80
2023/06/06 07:35:06;;;;;;;10.25;2.90;;;16.70;99.90;;;;;;4974714;28;20051;-79
2023/06/06 07:37:52;;;;;;;12.85;3.20;;;16.80;99.90;;;;;;4974327;28;20047;-78
2023/06/06 07:40:38;;;;;;;9.43;3.13;;;17.00;99.90;;;;;;4972207;28;20109;-78
2023/06/06 07:43:24;;;;;;;11.52;3.33;;;17.10;99.90;;;;;;4972593;28;20050;-78
2023/06/06 07:46:10;;;;;;;9.73;2.88;;;17.20;99.90;;;;;;4972902;28;20062;-77
2023/06/06 07:48:58;;;;;;;9.25;3.70;;;17.40;99.90;;;;;;4973120;28;20054;-77
2023/06/06 07:51:46;;;;;;;8.48;2.83;;;17.60;99.90;;;;;;4972947;28;20055;-77
2023/06/06 07:54:32;;;;;;;9.18;2.90;;;17.60;99.90;;;;;;4972522;28;20074;-78
2023/06/06 07:57:19;;;;;;;28.60;4.63;;;17.40;99.90;;;;;;4941535;28;20081;-78
2023/06/06 08:00:10;;;;;;;12.15;2.85;;;17.30;99.90;;;;;;4957860;28;20094;-79
2023/06/06 08:02:56;;;;;;;8.57;3.38;;;17.30;99.90;;;;;;4973245;28;20558;-79
2023/06/06 08:05:43;;;;;;;10.27;3.55;;;17.60;99.90;;;;;;4972710;28;20047;-78
2023/06/06 08:08:29;;;;;;;12.23;3.33;;;17.70;99.90;;;;;;4961016;28;20066;-79
2023/06/06 08:11:17;;;;;;;11.15;3.38;;;17.70;99.90;;;;;;4972596;28;20059;-79
2023/06/06 08:14:03;;;;;;;11.80;4.07;;;17.60;99.90;;;;;;4971691;28;20082;-79
2023/06/06 08:16:49;;;;;;;10.02;2.95;;;17.70;99.90;;;;;;4955471;28;20062;-79
2023/06/06 08:19:35;;;;;;;13.30;3.85;;;17.60;99.90;;;;;;4954946;28;20508;-78
2023/06/06 08:22:21;;;;;;;13.13;3.22;;;17.50;99.90;;;;;;4957326;28;20621;-78
2023/06/06 08:25:08;;;;;;;9.75;3.50;;;17.60;99.90;;;;;;4972144;28;20051;-79
2023/06/06 08:27:54;;;;;;;7.78;3.35;;;17.80;99.90;;;;;;4955787;28;20066;-79
2023/06/06 08:30:40;;;;;;;8.20;3.47;;;17.70;99.90;;;;;;4971650;28;20143;-78
2023/06/06 08:33:27;;;;;;;10.18;3.30;;;18.00;99.90;;;;;;4955517;28;20077;-78
2023/06/06 08:36:13;;;;;;;9.23;3.08;;;18.20;99.70;;;;;;4971836;28;20129;-78
2023/06/06 08:39:06;;;;;;;10.13;3.63;;;18.20;99.40;;;;;;4972495;28;20085;-79
2023/06/06 08:41:53;;;;;;;10.80;2.80;;;18.30;99.10;;;;;;4957350;28;20051;-78
2023/06/06 08:44:41;;;;;;;8.00;3.33;;;18.30;98.70;;;;;;4970621;28;20065;-78
2023/06/06 08:47:31;;;;;;;14.15;3.60;;;18.00;98.80;;;;;;4973128;28;20138;-77
2023/06/06 08:50:19;;;;;;;11.02;3.20;;;18.20;99.20;;;;;;4953921;28;20057;-78
2023/06/06 08:53:06;;;;;;;8.13;3.33;;;18.40;99.00;;;;;;4957166;28;20055;-78
2023/06/06 08:55:56;;;;;;;8.23;2.95;;;18.30;98.80;;;;;;4972253;28;20074;-78
2023/06/06 08:58:44;;;;;;;8.43;2.95;;;18.40;98.70;;;;;;4971939;28;20090;-77
2023/06/06 09:01:31;;;;;;;13.13;3.65;;;18.70;98.70;;;;;;4971535;28;20051;-78
2023/06/06 09:04:20;;;;;;;7.70;2.67;;;18.80;98.60;;;;;;4954106;28;20491;-79
2023/06/06 09:07:11;;;;;;;10.15;3.78;;;19.00;98.40;;;;;;4971441;28;20486;-79
2023/06/06 09:09:57;;;;;;;7.57;3.58;;;19.10;98.00;;;;;;4971631;28;20057;-79
2023/06/06 09:12:44;;;;;;;6.32;3.00;;;19.30;97.60;;;;;;4953803;28;20055;-78
2023/06/06 09:15:31;;;;;;;10.82;3.35;;;19.00;97.10;;;;;;4971055;28;20058;-78
2023/06/06 09:18:19;;;;;;;8.35;3.50;;;19.00;97.10;;;;;;4972570;28;20109;-77
2023/06/06 09:21:05;;;;;;;9.35;3.40;;;18.90;97.30;;;;;;4940761;28;20069;-78
2023/06/06 09:23:53;;;;;;;15.02;3.42;;;19.20;97.50;;;;;;4955083;28;20050;-78
2023/06/06 09:26:39;;;;;;;11.07;3.78;;;19.10;97.30;;;;;;4953115;28;20054;-78
2023/06/06 09:29:25;;;;;;;8.55;3.03;;;19.30;97.10;;;;;;4953644;28;20495;-77
2023/06/06 09:32:11;;;;;;;8.55;3.40;;;19.30;96.50;;;;;;4970423;28;20051;-77
2023/06/06 09:35:03;;;;;;;9.60;3.25;;;19.30;96.20;;;;;;4971393;28;20486;-79
2023/06/06 09:37:49;;;;;;;9.85;3.90;;;19.60;96.20;;;;;;4970566;28;20133;-78
2023/06/06 09:40:45;;;;;;;9.02;3.10;;;19.50;96.10;;;;;;4972142;28;20407;-78
2023/06/06 09:43:34;;;;;;;11.18;3.38;;;19.80;95.50;;;;;;4973883;28;20051;-78
2023/06/06 09:46:20;;;;;;;8.73;3.30;;;19.80;95.50;;;;;;4957438;28;20054;-77
2023/06/06 09:49:10;;;;;;;8.50;3.35;;;20.10;95.00;;;;;;4974634;28;20089;-79
2023/06/06 09:51:56;;;;;;;6.07;2.90;;;20.10;94.70;;;;;;4957035;28;20066;-78
2023/06/06 09:54:43;;;;;;;17.73;3.67;;;20.40;94.60;;;;;;4960318;28;20051;-78
2023/06/06 09:57:30;;;;;;;11.55;3.63;;;20.60;94.60;;;;;;4972697;28;20795;-79
2023/06/06 10:00:18;;;;;;;12.27;3.50;;;20.80;94.20;;;;;;4973649;28;20402;-78
2023/06/06 10:03:08;;;;;;;10.40;3.13;;;20.50;94.20;;;;;;4960212;28;20555;-78
2023/06/06 10:05:54;;;;;;;9.32;3.20;;;20.60;94.00;;;;;;4974075;28;20078;-78
2023/06/06 10:08:42;;;;;;;9.50;3.67;;;20.60;94.00;;;;;;4975111;28;20506;-78
2023/06/06 10:11:29;;;;;;;12.52;3.70;;;20.70;93.90;;;;;;4943157;28;20146;-78
2023/06/06 10:14:15;;;;;;;10.07;3.05;;;20.80;93.80;;;;;;4973476;28;20142;-79
2023/06/06 10:17:03;;;;;;;10.93;3.42;;;20.90;93.50;;;;;;4973926;28;20058;-78
2023/06/06 10:19:52;;;;;;;14.43;4.05;;;21.10;93.50;;;;;;4975100;28;20402;-80
2023/06/06 10:22:39;;;;;;;14.32;4.25;;;21.60;93.50;;;;;;4956111;28;20059;-83
2023/06/06 10:25:26;;;;;;;12.20;3.47;;;21.30;92.60;;;;;;4956880;28;20054;-79
2023/06/06 10:28:19;;;;;;;9.50;3.30;;;20.70;92.60;;;;;;4974234;28;20078;-77
2023/06/06 10:31:16;;;;;;;11.95;3.97;;;20.60;93.40;;;;;;4943665;28;20058;-86
2023/06/06 10:34:11;;;;;;;13.38;4.30;;;20.80;93.00;;;;;;4975968;28;20105;-82
2023/06/06 10:37:16;;;;;;;12.57;3.70;;;20.90;92.60;;;;;;4958760;28;20118;-79
2023/06/06 10:40:09;;;;;;;9.07;3.50;;;21.30;93.20;;;;;;4974969;28;20054;-84
2023/06/06 10:42:55;;;;;;;9.75;3.55;;;21.10;93.00;;;;;;4974396;28;20074;-76
2023/06/06 10:45:44;;;;;;;8.80;4.07;;;21.70;93.00;;;;;;4956446;28;20061;-76
2023/06/06 10:48:40;;;;;;;11.98;4.07;;;21.20;91.70;;;;;;4973526;28;20157;-75
2023/06/06 10:51:30;;;;;;;8.50;3.38;;;21.10;91.90;;;;;;4973376;28;20050;-74
2023/06/06 10:54:21;;;;;;;7.38;3.67;;;21.70;92.50;;;;;;4973174;28;20066;-77
2023/06/06 10:57:15;;;;;;;11.80;3.42;;;22.20;91.10;;;;;;4959760;28;20434;-80
2023/06/06 11:00:02;;;;;;;8.95;3.85;;;22.20;90.60;;;;;;4955823;28;20137;-74
2023/06/06 11:02:48;;;;;;;9.52;3.55;;;22.20;90.90;;;;;;4973876;28;20091;-76
2023/06/06 11:06:00;;;;;;;9.25;3.25;;;22.40;90.70;;;;;;4973656;28;20094;-76
2023/06/06 11:08:47;;;;;;;9.88;3.60;;;22.10;90.40;;;;;;4955275;28;20752;-79
2023/06/06 11:11:35;;;;;;;10.32;3.75;;;21.90;90.10;;;;;;4973124;28;20061;-83
2023/06/06 11:14:22;;;;;;;7.20;3.10;;;22.70;90.40;;;;;;4971668;28;20058;-77
2023/06/06 11:17:11;;;;;;;11.18;3.63;;;22.30;89.00;;;;;;4966836;28;20129;-77
2023/06/06 11:19:59;;;;;;;12.55;3.55;;;22.30;89.10;;;;;;4961339;28;20779;-78
2023/06/06 11:23:02;;;;;;;14.65;4.30;;;22.20;90.00;;;;;;4963596;28;20508;-79
2023/06/06 11:25:49;;;;;;;10.52;3.42;;;22.20;89.70;;;;;;4968627;28;20082;-78
2023/06/06 11:28:37;;;;;;;12.73;3.80;;;22.00;90.60;;;;;;4965097;28;20491;-79
2023/06/06 11:31:24;;;;;;;11.23;3.03;;;22.30;90.10;;;;;;4947861;28;20077;-83
2023/06/06 11:34:14;;;;;;;14.85;3.40;;;22.20;89.90;;;;;;4966307;28;20126;-76
2023/06/06 11:37:01;;;;;;;9.95;3.17;;;22.80;88.60;;;;;;4969272;28;20134;-77
2023/06/06 11:39:47;;;;;;;9.48;3.00;;;22.40;88.80;;;;;;4961801;28;20061;-77
2023/06/06 11:42:33;;;;;;;10.77;3.60;;;22.80;87.90;;;;;;4973276;28;20058;-83
2023/06/06 11:45:20;;;;;;;18.98;3.97;;;23.20;87.90;;;;;;4973209;28;20054;-82
2023/06/06 11:48:25;;;;;;;10.98;3.03;;;23.60;87.30;;;;;;4955045;28;20051;-77
2023/06/06 11:51:15;;;;;;;13.10;3.88;;;23.30;84.40;;;;;;4959210;28;20082;-79
2023/06/06 11:54:21;;;;;;;11.68;3.47;;;23.00;85.40;;;;;;4955447;28;20054;-79
2023/06/06 11:57:09;;;;;;;9.85;3.15;;;23.20;86.80;;;;;;4973291;28;20043;-80
2023/06/06 11:59:59;;;;;;;18.95;4.28;;;23.00;85.00;;;;;;4972835;28;20559;-79
2023/06/06 12:02:49;;;;;;;14.50;3.45;;;23.80;85.50;;;;;;4941526;28;20055;-77
2023/06/06 12:05:36;;;;;;;14.52;3.33;;;23.60;84.40;;;;;;4972514;28;20475;-77
2023/06/06 12:08:22;;;;;;;7.13;2.78;;;23.50;86.00;;;;;;4972952;28;20516;-76
2023/06/06 12:11:27;;;;;;;14.25;3.65;;;23.40;84.40;;;;;;4955200;28;20190;-86
2023/06/06 12:14:13;;;;;;;8.77;3.45;;;23.40;84.20;;;;;;4972190;28;20097;-78
2023/06/06 12:17:10;;;;;;;8.23;3.00;;;23.80;83.40;;;;;;4941574;28;20066;-83
2023/06/06 12:19:56;;;;;;;14.80;3.85;;;23.40;83.90;;;;;;4970925;28;20054;-75
2023/06/06 12:22:48;;;;;;;13.50;4.85;;;23.40;85.00;;;;;;4950889;28;20089;-80
2023/06/06 12:25:34;;;;;;;9.48;3.25;;;23.90;82.20;;;;;;4961274;28;20094;-74
2023/06/06 12:28:20;;;;;;;17.85;3.45;;;24.00;82.60;;;;;;4955068;28;20043;-76
2023/06/06 12:31:20;;;;;;;14.32;3.35;;;23.80;83.10;;;;;;4962710;28;20070;-77
2023/06/06 12:34:07;;;;;;;17.58;4.20;;;23.40;81.40;;;;;;4962573;28;20085;-77
2023/06/06 12:36:56;;;;;;;9.93;2.88;;;23.30;83.70;;;;;;4943330;28;20189;-80
2023/06/06 12:39:44;;;;;;;8.70;2.90;;;23.50;82.90;;;;;;4963312;28;20394;-75
2023/06/06 12:42:30;;;;;;;13.15;3.38;;;23.10;82.50;;;;;;4945647;28;20130;-77
2023/06/06 12:45:16;;;;;;;10.07;3.22;;;23.10;82.70;;;;;;4945208;28;20131;-79
2023/06/06 12:48:03;;;;;;;10.38;3.33;;;22.80;83.10;;;;;;4944562;28;20402;-81
2023/06/06 12:50:49;;;;;;;24.38;3.75;;;22.90;82.90;;;;;;4952947;29;20142;-80
2023/06/06 12:53:36;;;;;;;21.88;4.15;;;23.00;83.30;;;;;;4934976;29;20059;-78
2023/06/06 12:56:22;;;;;;;9.85;2.80;;;23.70;82.50;;;;;;4952836;28;20055;-80
2023/06/06 12:59:09;;;;;;;14.15;3.00;;;23.90;81.70;;;;;;4935688;28;20146;-76
2023/06/06 13:01:55;;;;;;;7.90;2.58;;;23.70;80.30;;;;;;4952778;28;20535;-79
2023/06/06 13:04:42;;;;;;;21.20;4.00;;;23.90;81.30;;;;;;4950243;29;20062;-79
2023/06/06 13:07:28;;;;;;;7.18;2.80;;;24.00;81.20;;;;;;4953149;28;20392;-79
2023/06/06 13:10:14;;;;;;;13.75;3.03;;;24.30;80.30;;;;;;4934545;29;20055;-79
2023/06/06 13:13:01;;;;;;;15.00;3.65;;;24.70;79.30;;;;;;4936035;28;20190;-73
2023/06/06 13:15:48;;;;;;;8.90;3.03;;;24.40;77.40;;;;;;4954367;28;20051;-75
2023/06/06 13:18:36;;;;;;;11.02;3.30;;;24.40;78.90;;;;;;4957864;28;20055;-77
2023/06/06 13:21:22;;;;;;;9.95;3.55;;;24.60;78.60;;;;;;4959928;28;20101;-78
2023/06/06 13:24:08;;;;;;;9.55;3.05;;;24.20;77.30;;;;;;4958021;28;20067;-76
2023/06/06 13:26:54;;;;;;;10.82;2.78;;;24.50;77.60;;;;;;4974313;28;20150;-76
2023/06/06 13:29:41;;;;;;;10.15;3.83;;;24.40;77.60;;;;;;4974287;28;20462;-78
2023/06/06 13:32:27;;;;;;;10.15;3.47;;;24.70;78.30;;;;;;4975151;28;20547;-76
2023/06/06 13:35:13;;;;;;;9.00;3.40;;;24.50;75.60;;;;;;4975334;28;20061;-76
2023/06/06 13:37:59;;;;;;;8.50;2.72;;;23.60;77.40;;;;;;4975077;28;20116;-78
2023/06/06 13:40:46;;;;;;;11.15;3.08;;;24.50;78.20;;;;;;4957950;28;20094;-78
2023/06/06 13:43:32;;;;;;;10.00;3.20;;;24.50;78.20;;;;;;4973823;28;20051;-76
2023/06/06 13:46:18;;;;;;;15.82;3.83;;;24.80;77.50;;;;;;4953949;28;20126;-76
2023/06/06 13:49:04;;;;;;;11.75;3.50;;;24.50;76.90;;;;;;4973641;28;20070;-75
2023/06/06 13:51:50;;;;;;;14.77;3.75;;;24.30;76.70;;;;;;4975106;28;20057;-75
2023/06/06 13:54:37;;;;;;;13.73;3.38;;;24.30;77.20;;;;;;4956813;28;20058;-73
2023/06/06 13:57:28;;;;;;;7.97;3.15;;;25.10;75.20;;;;;;4974336;28;20101;-76
2023/06/06 14:00:15;;;;;;;9.15;3.03;;;25.00;74.50;;;;;;4971024;28;20063;-78
2023/06/06 14:03:01;;;;;;;9.48;3.05;;;24.60;75.60;;;;;;4970926;28;20051;-77
2023/06/06 14:05:47;;;;;;;14.30;3.78;;;25.00;75.10;;;;;;4974877;28;20050;-76
2023/06/06 14:08:33;;;;;;;10.02;2.85;;;24.40;74.90;;;;;;4944965;28;20050;-76
2023/06/06 14:11:19;;;;;;;11.38;2.85;;;24.00;76.70;;;;;;4974803;28;20110;-82
2023/06/06 14:14:06;;;;;;;9.55;2.97;;;24.40;76.50;;;;;;4977560;28;20059;-76
2023/06/06 14:16:52;;;;;;;7.65;2.63;;;24.30;76.10;;;;;;4943660;28;20066;-82
2023/06/06 14:19:42;;;;;;;14.88;3.30;;;25.40;75.20;;;;;;4974037;28;20138;-80
2023/06/06 14:22:33;;;;;;;11.25;2.70;;;26.10;73.60;;;;;;4972980;28;20485;-77
2023/06/06 14:25:19;;;;;;;8.38;3.00;;;26.80;71.50;;;;;;4973397;28;20089;-77
2023/06/06 14:28:05;;;;;;;11.95;3.03;;;26.80;70.50;;;;;;4964495;28;20066;-76
2023/06/06 14:30:51;;;;;;;8.55;2.95;;;26.90;69.60;;;;;;4972067;28;20185;-75